Time;durP1;ratioP1;P1;durP2;ratioP2;P2;SDS_P1;SDS_P2;PMS_P1;PMS_P2;Temp;Humidity;BMP_temperature;BMP_pressure;BME280_temperature;BME280_humidity;BME280_pressure;Samples;Min_cycle;Max_cycle;Signal;HPM_P1;HPM_P2
2022/12/19 00:00:09;;;;;;;34.87;11.70;;;;;;;;;;5011422;28;20034;-61
2022/12/19 00:02:34;;;;;;;36.08;11.63;;;;;;;;;;5011122;28;20037;-61
2022/12/19 00:04:59;;;;;;;32.15;10.65;;;;;;;;;;5011885;28;20030;-61
2022/12/19 00:07:24;;;;;;;27.77;10.55;;;;;;;;;;5011489;28;20053;-61
2022/12/19 00:09:49;;;;;;;33.38;11.75;;;;;;;;;;5010864;28;20048;-62
2022/12/19 00:12:14;;;;;;;28.80;9.67;;;;;;;;;;5010278;28;20079;-61
2022/12/19 00:14:39;;;;;;;32.97;11.52;;;;;;;;;;5010153;28;20488;-62
2022/12/19 00:17:05;;;;;;;28.77;9.67;;;;;;;;;;5006168;28;20037;-63
2022/12/19 00:19:30;;;;;;;34.17;10.65;;;;;;;;;;5011968;28;20022;-63
2022/12/19 00:21:55;;;;;;;33.93;11.40;;;;;;;;;;5010768;28;20022;-62
2022/12/19 00:24:20;;;;;;;33.00;10.17;;;;;;;;;;5012445;28;20026;-63
2022/12/19 00:26:45;;;;;;;30.77;10.73;;;;;;;;;;5011418;28;20022;-63
2022/12/19 00:29:10;;;;;;;29.87;10.23;;;;;;;;;;5010685;28;20129;-63
2022/12/19 00:31:36;;;;;;;27.93;10.20;;;;;;;;;;5012441;28;20018;-63
2022/12/19 00:34:02;;;;;;;28.85;9.95;;;;;;;;;;5011431;28;20021;-63
2022/12/19 00:36:28;;;;;;;32.60;11.43;;;;;;;;;;5006836;28;20022;-63
2022/12/19 00:38:54;;;;;;;26.85;9.70;;;;;;;;;;5006483;28;20473;-62
2022/12/19 00:41:21;;;;;;;31.13;10.00;;;;;;;;;;5012183;28;20061;-63
2022/12/19 00:43:46;;;;;;;31.80;10.57;;;;;;;;;;5011346;28;20037;-62
2022/12/19 00:46:13;;;;;;;30.37;9.87;;;;;;;;;;5010222;28;20048;-61
2022/12/19 00:48:38;;;;;;;31.77;10.40;;;;;;;;;;5012361;28;20144;-61
2022/12/19 00:51:05;;;;;;;34.37;9.93;;;;;;;;;;5010725;28;20125;-61
2022/12/19 00:53:30;;;;;;;31.80;9.82;;;;;;;;;;5011168;28;20028;-62
2022/12/19 00:55:55;;;;;;;29.90;9.60;;;;;;;;;;5009211;28;20018;-63
2022/12/19 00:58:20;;;;;;;24.87;8.27;;;;;;;;;;5011878;28;20021;-62
2022/12/19 01:00:45;;;;;;;30.25;9.23;;;;;;;;;;5012213;28;20396;-62
2022/12/19 01:03:11;;;;;;;30.80;10.00;;;;;;;;;;5011808;28;20682;-62
2022/12/19 01:05:36;;;;;;;28.27;9.30;;;;;;;;;;5010991;28;20049;-63
2022/12/19 01:08:01;;;;;;;30.03;9.83;;;;;;;;;;5008928;28;20042;-62
2022/12/19 01:10:26;;;;;;;33.33;10.40;;;;;;;;;;5010687;28;20033;-62
2022/12/19 01:12:51;;;;;;;30.60;9.90;;;;;;;;;;5008079;28;20421;-62
2022/12/19 01:15:19;;;;;;;29.53;9.50;;;;;;;;;;5008245;28;20137;-62
2022/12/19 01:17:44;;;;;;;33.17;10.43;;;;;;;;;;5007234;28;20045;-62
2022/12/19 01:20:10;;;;;;;31.10;9.75;;;;;;;;;;5011531;28;20026;-62
2022/12/19 01:22:35;;;;;;;25.10;8.65;;;;;;;;;;5007287;28;20026;-62
2022/12/19 01:25:01;;;;;;;30.53;9.80;;;;;;;;;;5009785;28;20025;-64
2022/12/19 01:27:26;;;;;;;27.50;10.17;;;;;;;;;;5009491;28;20554;-62
2022/12/19 01:29:51;;;;;;;27.57;9.33;;;;;;;;;;5003955;28;20026;-62
2022/12/19 01:32:16;;;;;;;27.57;9.00;;;;;;;;;;5005689;28;20022;-63
2022/12/19 01:34:41;;;;;;;30.80;9.97;;;;;;;;;;5009433;28;20030;-62
2022/12/19 01:37:06;;;;;;;31.90;9.97;;;;;;;;;;5008601;28;20017;-63
2022/12/19 01:39:31;;;;;;;27.03;9.00;;;;;;;;;;5008396;28;20018;-62
2022/12/19 01:41:57;;;;;;;26.10;8.80;;;;;;;;;;5009237;28;20165;-62
2022/12/19 01:44:23;;;;;;;26.77;9.37;;;;;;;;;;5008101;28;20815;-62
2022/12/19 01:46:49;;;;;;;24.20;8.30;;;;;;;;;;5006423;28;20495;-62
2022/12/19 01:49:25;;;;;;;29.83;9.27;;;;;;;;;;5007510;28;20041;-63
2022/12/19 01:51:51;;;;;;;28.95;9.73;;;;;;;;;;5008827;28;20049;-63
2022/12/19 01:54:19;;;;;;;27.90;9.68;;;;;;;;;;5007210;28;20111;-62
2022/12/19 01:56:46;;;;;;;26.40;8.82;;;;;;;;;;5008298;28;20028;-63
2022/12/19 01:59:22;;;;;;;27.58;8.80;;;;;;;;;;5001294;28;20072;-62
2022/12/19 02:01:50;;;;;;;23.38;8.43;;;;;;;;;;5003896;28;20099;-63
2022/12/19 02:04:15;;;;;;;24.30;8.18;;;;;;;;;;4993141;28;20030;-63
2022/12/19 02:06:41;;;;;;;26.17;8.93;;;;;;;;;;5008904;28;20038;-61
2022/12/19 02:09:07;;;;;;;26.67;9.13;;;;;;;;;;5006947;28;20501;-62
2022/12/19 02:11:32;;;;;;;22.85;8.15;;;;;;;;;;5007777;28;20473;-62
2022/12/19 02:13:57;;;;;;;24.57;7.60;;;;;;;;;;5008731;28;20057;-61
2022/12/19 02:16:25;;;;;;;24.10;7.70;;;;;;;;;;5005896;28;20362;-61
2022/12/19 02:19:03;;;;;;;23.65;7.88;;;;;;;;;;5008977;28;20037;-60
2022/12/19 02:21:39;;;;;;;24.08;7.55;;;;;;;;;;5008000;28;20097;-60
2022/12/19 02:24:33;;;;;;;21.13;7.25;;;;;;;;;;5010068;28;20051;-61
2022/12/19 02:27:06;;;;;;;22.85;7.20;;;;;;;;;;4999582;28;20042;-60
2022/12/19 02:29:50;;;;;;;20.92;6.80;;;;;;;;;;4996029;28;20380;-62
2022/12/19 02:32:18;;;;;;;25.85;7.30;;;;;;;;;;5006886;28;20029;-62
2022/12/19 02:34:48;;;;;;;25.35;7.30;;;;;;;;;;5009650;28;20141;-61
2022/12/19 02:37:20;;;;;;;19.02;7.07;;;;;;;;;;5006420;28;20073;-61
2022/12/19 02:39:49;;;;;;;22.23;7.00;;;;;;;;;;5009152;28;20018;-61
2022/12/19 02:42:18;;;;;;;21.98;6.97;;;;;;;;;;5000647;28;20022;-62
2022/12/19 02:44:46;;;;;;;23.90;7.65;;;;;;;;;;5007400;28;20096;-61
2022/12/19 02:47:12;;;;;;;24.42;8.50;;;;;;;;;;5006299;28;20029;-62
2022/12/19 02:49:37;;;;;;;19.45;6.32;;;;;;;;;;5009398;28;20094;-62
2022/12/19 02:52:18;;;;;;;19.57;6.80;;;;;;;;;;5007834;28;20029;-62
2022/12/19 02:54:43;;;;;;;21.02;7.45;;;;;;;;;;5007452;28;20961;-62
2022/12/19 02:57:18;;;;;;;22.88;7.95;;;;;;;;;;5008746;28;20025;-62
2022/12/19 02:59:46;;;;;;;24.70;7.75;;;;;;;;;;5009458;28;20006;-62
2022/12/19 03:02:14;;;;;;;20.27;6.82;;;;;;;;;;5006275;28;20091;-63
2022/12/19 03:04:49;;;;;;;19.58;6.60;;;;;;;;;;5008807;28;20084;-63
2022/12/19 03:07:33;;;;;;;22.67;8.02;;;;;;;;;;5006265;28;20084;-64
2022/12/19 03:10:16;;;;;;;25.00;7.95;;;;;;;;;;5007399;28;20026;-64
2022/12/19 03:12:47;;;;;;;21.02;7.97;;;;;;;;;;5005142;28;20496;-62
2022/12/19 03:15:13;;;;;;;23.92;8.45;;;;;;;;;;5005318;28;20077;-62
2022/12/19 03:17:38;;;;;;;23.85;7.32;;;;;;;;;;5010451;28;20072;-61
2022/12/19 03:20:08;;;;;;;31.98;8.30;;;;;;;;;;5009883;28;20034;-62
2022/12/19 03:22:33;;;;;;;23.27;7.25;;;;;;;;;;5010847;28;20034;-63
2022/12/19 03:24:58;;;;;;;25.27;8.23;;;;;;;;;;5013048;28;20396;-60
2022/12/19 03:27:27;;;;;;;25.40;8.30;;;;;;;;;;5013148;28;20056;-61
2022/12/19 03:30:00;;;;;;;21.30;7.18;;;;;;;;;;5009824;28;20381;-60
2022/12/19 03:32:27;;;;;;;27.38;8.45;;;;;;;;;;5010199;28;20022;-60
2022/12/19 03:34:56;;;;;;;26.67;7.90;;;;;;;;;;5011877;28;20156;-62
2022/12/19 03:37:23;;;;;;;23.58;7.32;;;;;;;;;;5010459;28;20017;-62
2022/12/19 03:39:50;;;;;;;24.35;7.95;;;;;;;;;;5013948;28;20476;-62
2022/12/19 03:45:00;;;;;;;24.48;7.68;;;;;;;;;;5011767;28;20509;-63
2022/12/19 03:47:29;;;;;;;22.55;7.50;;;;;;;;;;5011547;28;20034;-62
2022/12/19 03:49:54;;;;;;;24.05;7.18;;;;;;;;;;5010008;28;20105;-62
2022/12/19 03:52:40;;;;;;;22.90;7.53;;;;;;;;;;5011291;28;20157;-62
2022/12/19 03:55:12;;;;;;;21.08;7.07;;;;;;;;;;4994613;28;20188;-63
2022/12/19 03:57:40;;;;;;;25.27;7.57;;;;;;;;;;5011799;28;20022;-61
2022/12/19 04:00:06;;;;;;;22.92;8.20;;;;;;;;;;5010451;28;20038;-62
2022/12/19 04:02:33;;;;;;;25.10;8.60;;;;;;;;;;5010145;28;20113;-62
2022/12/19 04:05:02;;;;;;;27.48;7.97;;;;;;;;;;5009197;28;20029;-62
2022/12/19 04:07:27;;;;;;;26.60;8.00;;;;;;;;;;5012519;28;20117;-63
2022/12/19 04:09:53;;;;;;;25.67;8.10;;;;;;;;;;5009724;28;20488;-62
2022/12/19 04:12:20;;;;;;;23.10;7.70;;;;;;;;;;5011267;28;20037;-63
2022/12/19 04:14:46;;;;;;;29.77;9.00;;;;;;;;;;5011091;28;20092;-64
2022/12/19 04:17:14;;;;;;;27.80;8.82;;;;;;;;;;5013117;28;20010;-63
2022/12/19 04:19:43;;;;;;;27.23;8.75;;;;;;;;;;5011922;28;20034;-63
2022/12/19 04:22:44;;;;;;;21.17;7.30;;;;;;;;;;5008474;28;20855;-62
2022/12/19 04:25:11;;;;;;;24.45;7.43;;;;;;;;;;4947653;28;20019;-62
2022/12/19 04:27:38;;;;;;;27.88;9.30;;;;;;;;;;4989543;28;20121;-61
2022/12/19 04:30:04;;;;;;;30.58;9.40;;;;;;;;;;5008924;28;20108;-62
2022/12/19 04:32:31;;;;;;;26.05;8.52;;;;;;;;;;5012272;28;20029;-61
2022/12/19 04:34:57;;;;;;;27.27;9.18;;;;;;;;;;5006588;28;20033;-62
2022/12/19 04:37:22;;;;;;;27.00;8.88;;;;;;;;;;5010451;28;20018;-61
2022/12/19 04:39:48;;;;;;;26.80;9.30;;;;;;;;;;5009990;28;20375;-62
2022/12/19 04:42:13;;;;;;;28.63;8.80;;;;;;;;;;5007949;28;20030;-62
2022/12/19 04:44:38;;;;;;;30.53;10.37;;;;;;;;;;5009866;28;20029;-62
2022/12/19 04:47:03;;;;;;;32.47;10.33;;;;;;;;;;5011107;28;20425;-63
2022/12/19 04:49:28;;;;;;;33.33;9.87;;;;;;;;;;5009214;28;20069;-62
2022/12/19 04:51:53;;;;;;;31.63;10.73;;;;;;;;;;5008259;28;20065;-62
2022/12/19 04:54:20;;;;;;;30.27;9.80;;;;;;;;;;5011480;28;20080;-62
2022/12/19 04:56:45;;;;;;;29.67;9.45;;;;;;;;;;5012668;28;20014;-61
2022/12/19 04:59:10;;;;;;;27.13;9.67;;;;;;;;;;5018734;28;20018;-62
2022/12/19 05:01:35;;;;;;;30.13;9.77;;;;;;;;;;5013809;28;20570;-63
2022/12/19 05:04:01;;;;;;;33.17;10.57;;;;;;;;;;5010045;28;20034;-61
2022/12/19 05:06:26;;;;;;;29.67;9.77;;;;;;;;;;5009481;28;20061;-65
2022/12/19 05:08:51;;;;;;;31.37;10.20;;;;;;;;;;5010963;28;20524;-61
2022/12/19 05:11:16;;;;;;;33.45;11.18;;;;;;;;;;5008935;28;20030;-61
2022/12/19 05:13:42;;;;;;;29.87;10.07;;;;;;;;;;5008444;28;20045;-61
2022/12/19 05:16:08;;;;;;;29.40;9.93;;;;;;;;;;5011742;28;20017;-61
2022/12/19 05:18:34;;;;;;;30.90;9.77;;;;;;;;;;5008137;28;20131;-62
2022/12/19 05:21:00;;;;;;;31.77;10.90;;;;;;;;;;5006917;28;20025;-62
2022/12/19 05:23:25;;;;;;;32.87;10.63;;;;;;;;;;5008841;28;20036;-62
2022/12/19 05:25:50;;;;;;;31.27;10.23;;;;;;;;;;5006487;28;20076;-62
2022/12/19 05:28:16;;;;;;;30.67;9.80;;;;;;;;;;5008175;28;20030;-62
2022/12/19 05:30:41;;;;;;;33.50;11.52;;;;;;;;;;5006343;28;20033;-62
2022/12/19 05:33:06;;;;;;;30.97;10.70;;;;;;;;;;4998429;28;20030;-62
2022/12/19 05:35:32;;;;;;;35.27;10.77;;;;;;;;;;4993872;28;20038;-62
2022/12/19 05:37:57;;;;;;;34.08;11.05;;;;;;;;;;4995792;28;20476;-62
2022/12/19 05:40:23;;;;;;;33.87;10.07;;;;;;;;;;5009164;28;20172;-62
2022/12/19 05:42:48;;;;;;;32.20;10.70;;;;;;;;;;5002388;28;20026;-62
2022/12/19 05:45:13;;;;;;;35.37;10.17;;;;;;;;;;5006372;28;20421;-62
2022/12/19 05:47:38;;;;;;;30.03;10.00;;;;;;;;;;5010995;28;20040;-62
2022/12/19 05:50:04;;;;;;;33.97;12.27;;;;;;;;;;5006816;28;20018;-63
2022/12/19 05:52:29;;;;;;;37.75;11.65;;;;;;;;;;5012467;28;20030;-62
2022/12/19 05:54:55;;;;;;;30.93;9.67;;;;;;;;;;5005678;28;20030;-62
2022/12/19 05:57:20;;;;;;;33.87;10.43;;;;;;;;;;5007054;28;20570;-62
2022/12/19 05:59:45;;;;;;;34.70;10.77;;;;;;;;;;5007922;28;20117;-63
2022/12/19 06:02:10;;;;;;;34.55;11.00;;;;;;;;;;5007090;28;20136;-62
2022/12/19 06:04:35;;;;;;;30.37;10.33;;;;;;;;;;5006532;28;20754;-62
2022/12/19 06:07:00;;;;;;;32.07;10.40;;;;;;;;;;5005054;28;20026;-62
2022/12/19 06:09:26;;;;;;;32.43;11.10;;;;;;;;;;5006247;28;20033;-63
2022/12/19 06:11:51;;;;;;;32.50;10.13;;;;;;;;;;5007517;28;20079;-62
2022/12/19 06:14:16;;;;;;;35.07;10.60;;;;;;;;;;5000079;28;20042;-62
2022/12/19 06:16:41;;;;;;;29.53;9.93;;;;;;;;;;5004123;28;20050;-63
2022/12/19 06:19:07;;;;;;;33.50;10.57;;;;;;;;;;5007305;28;20022;-63
2022/12/19 06:21:32;;;;;;;34.80;11.35;;;;;;;;;;5009371;28;20040;-63
2022/12/19 06:23:57;;;;;;;35.23;11.63;;;;;;;;;;5008171;28;20595;-63
2022/12/19 06:26:23;;;;;;;32.83;10.50;;;;;;;;;;5007628;28;20029;-62
2022/12/19 06:28:49;;;;;;;35.47;11.87;;;;;;;;;;5006241;28;20026;-62
2022/12/19 06:31:14;;;;;;;34.35;11.25;;;;;;;;;;5008588;28;20131;-63
2022/12/19 06:33:39;;;;;;;39.97;13.03;;;;;;;;;;5009540;28;20026;-62
2022/12/19 06:36:06;;;;;;;37.10;11.32;;;;;;;;;;5010407;28;20480;-62
2022/12/19 06:38:32;;;;;;;38.15;11.00;;;;;;;;;;5010647;28;20026;-62
2022/12/19 06:43:41;;;;;;;35.25;11.23;;;;;;;;;;5008953;28;20049;-63
2022/12/19 06:46:07;;;;;;;34.73;10.63;;;;;;;;;;5010429;28;20520;-61
2022/12/19 06:48:32;;;;;;;34.97;12.10;;;;;;;;;;5010354;28;20571;-62
2022/12/19 06:50:57;;;;;;;36.93;11.97;;;;;;;;;;5010274;28;20030;-62
2022/12/19 06:53:22;;;;;;;37.90;12.20;;;;;;;;;;5012289;28;20037;-62
2022/12/19 06:55:49;;;;;;;36.23;12.03;;;;;;;;;;5014233;28;20026;-62
2022/12/19 06:58:14;;;;;;;33.20;11.40;;;;;;;;;;5016246;28;20032;-72
2022/12/19 07:00:39;;;;;;;34.43;12.50;;;;;;;;;;5007749;28;20108;-63
2022/12/19 07:03:06;;;;;;;34.57;11.53;;;;;;;;;;5012089;28;20456;-64
2022/12/19 07:05:31;;;;;;;36.53;12.00;;;;;;;;;;5011871;28;20152;-62
2022/12/19 07:07:56;;;;;;;34.73;11.13;;;;;;;;;;5009762;28;20448;-64
2022/12/19 07:10:21;;;;;;;34.40;11.77;;;;;;;;;;5013900;28;21163;-62
2022/12/19 07:12:47;;;;;;;34.80;11.03;;;;;;;;;;5010913;28;20528;-62
2022/12/19 07:15:12;;;;;;;34.23;11.07;;;;;;;;;;5009466;28;20050;-62
2022/12/19 07:17:37;;;;;;;37.07;11.37;;;;;;;;;;5009299;28;20112;-63
2022/12/19 07:20:03;;;;;;;37.80;11.95;;;;;;;;;;5017157;28;20452;-62
2022/12/19 07:22:30;;;;;;;37.75;12.23;;;;;;;;;;5013195;28;20025;-62
2022/12/19 07:24:55;;;;;;;36.83;11.90;;;;;;;;;;5010655;28;20511;-62
2022/12/19 07:27:21;;;;;;;38.88;13.10;;;;;;;;;;5011323;28;20032;-62
2022/12/19 07:29:47;;;;;;;39.78;11.88;;;;;;;;;;5009725;28;20040;-62
2022/12/19 07:32:12;;;;;;;34.60;11.50;;;;;;;;;;5013700;28;20014;-62
2022/12/19 07:34:37;;;;;;;34.40;11.17;;;;;;;;;;5013686;28;20080;-62
2022/12/19 07:37:02;;;;;;;37.80;11.40;;;;;;;;;;5011485;28;20022;-62
2022/12/19 07:39:27;;;;;;;40.60;12.77;;;;;;;;;;5002898;28;20443;-62
2022/12/19 07:41:52;;;;;;;36.67;12.93;;;;;;;;;;5008135;28;20026;-62
2022/12/19 07:44:18;;;;;;;36.33;11.70;;;;;;;;;;5008559;28;20105;-63
2022/12/19 07:46:43;;;;;;;41.17;12.43;;;;;;;;;;5008890;28;20038;-62
2022/12/19 07:49:09;;;;;;;40.55;12.32;;;;;;;;;;5010699;28;20029;-61
2022/12/19 07:51:34;;;;;;;40.93;12.27;;;;;;;;;;5009876;28;20672;-62
2022/12/19 07:53:59;;;;;;;33.57;11.50;;;;;;;;;;5012460;28;20022;-62
2022/12/19 07:56:24;;;;;;;39.80;12.93;;;;;;;;;;5002777;28;20022;-65
2022/12/19 07:58:50;;;;;;;38.08;12.50;;;;;;;;;;5006125;28;20393;-62
2022/12/19 08:01:16;;;;;;;34.33;11.93;;;;;;;;;;5012477;28;20036;-62
2022/12/19 08:03:41;;;;;;;36.67;12.27;;;;;;;;;;5011539;28;20030;-62
2022/12/19 08:06:06;;;;;;;34.87;12.20;;;;;;;;;;5003061;28;20057;-62
2022/12/19 08:08:32;;;;;;;36.50;13.18;;;;;;;;;;5013153;28;20014;-62
2022/12/19 08:11:06;;;;;;;33.45;12.82;;;;;;;;;;5010737;28;20026;-62
2022/12/19 08:13:32;;;;;;;37.72;12.38;;;;;;;;;;5008620;28;20030;-63
2022/12/19 08:15:58;;;;;;;35.57;11.67;;;;;;;;;;5010848;28;20758;-63
2022/12/19 08:18:24;;;;;;;35.75;11.90;;;;;;;;;;5006491;28;20025;-61
2022/12/19 08:20:50;;;;;;;33.80;11.07;;;;;;;;;;5005692;28;20026;-61
2022/12/19 08:23:15;;;;;;;39.07;11.97;;;;;;;;;;5009757;28;20032;-62
2022/12/19 08:25:40;;;;;;;30.35;11.60;;;;;;;;;;5012856;28;20022;-62
2022/12/19 08:28:05;;;;;;;35.20;11.73;;;;;;;;;;5012584;28;20107;-62
2022/12/19 08:30:31;;;;;;;33.40;11.10;;;;;;;;;;5009465;28;20064;-62
2022/12/19 08:32:56;;;;;;;30.87;11.13;;;;;;;;;;5012644;28;20458;-62
2022/12/19 08:35:21;;;;;;;32.70;11.63;;;;;;;;;;5012646;28;20116;-62
2022/12/19 08:37:46;;;;;;;32.83;11.85;;;;;;;;;;5012132;28;20013;-62
2022/12/19 08:40:12;;;;;;;32.97;11.18;;;;;;;;;;5011426;28;20029;-63
2022/12/19 08:42:37;;;;;;;33.00;11.57;;;;;;;;;;5012494;28;20491;-62
2022/12/19 08:45:02;;;;;;;32.83;12.15;;;;;;;;;;5012254;28;20022;-62
2022/12/19 08:47:27;;;;;;;32.43;11.57;;;;;;;;;;5012022;28;20030;-62
2022/12/19 08:49:53;;;;;;;32.00;12.07;;;;;;;;;;5010482;28;20433;-61
2022/12/19 08:52:18;;;;;;;37.88;11.13;;;;;;;;;;5010455;28;20028;-62
2022/12/19 08:54:44;;;;;;;36.05;12.02;;;;;;;;;;5012219;28;20017;-62
2022/12/19 08:57:09;;;;;;;32.92;12.05;;;;;;;;;;5012077;28;20030;-61
2022/12/19 08:59:34;;;;;;;33.43;11.93;;;;;;;;;;5011890;28;20114;-62
2022/12/19 09:01:59;;;;;;;36.73;11.33;;;;;;;;;;5008855;28;20030;-61
2022/12/19 09:04:24;;;;;;;32.73;11.67;;;;;;;;;;5011780;28;20054;-61
2022/12/19 09:06:50;;;;;;;34.73;11.73;;;;;;;;;;5012002;28;20113;-61
2022/12/19 09:09:15;;;;;;;36.13;11.83;;;;;;;;;;5011911;28;20026;-60
2022/12/19 09:11:40;;;;;;;32.25;10.77;;;;;;;;;;5011000;28;20381;-63
2022/12/19 09:14:05;;;;;;;35.00;11.97;;;;;;;;;;5007991;28;20064;-63
2022/12/19 09:16:30;;;;;;;37.03;11.80;;;;;;;;;;5011195;28;20026;-62
2022/12/19 09:18:57;;;;;;;35.63;12.30;;;;;;;;;;5011818;28;20040;-61
2022/12/19 09:21:23;;;;;;;36.05;12.70;;;;;;;;;;5011784;28;20037;-61
2022/12/19 09:23:50;;;;;;;39.03;13.13;;;;;;;;;;5010606;28;20021;-62
2022/12/19 09:26:15;;;;;;;35.22;12.88;;;;;;;;;;5011645;28;20405;-63
2022/12/19 09:28:41;;;;;;;36.17;12.07;;;;;;;;;;5011527;28;20024;-62
2022/12/19 09:31:07;;;;;;;32.90;11.87;;;;;;;;;;5011453;28;20547;-62
2022/12/19 09:33:34;;;;;;;37.15;13.52;;;;;;;;;;5009217;28;20028;-61
2022/12/19 09:35:59;;;;;;;43.95;14.25;;;;;;;;;;5011478;28;20033;-62
2022/12/19 09:38:25;;;;;;;37.30;12.77;;;;;;;;;;5011289;28;20068;-61
2022/12/19 09:40:57;;;;;;;37.53;13.52;;;;;;;;;;5011264;28;20045;-61
2022/12/19 09:43:41;;;;;;;39.90;13.02;;;;;;;;;;5007706;28;20049;-62
2022/12/19 09:46:15;;;;;;;36.22;12.90;;;;;;;;;;5011156;28;20033;-61
2022/12/19 09:48:40;;;;;;;34.58;13.38;;;;;;;;;;5011444;28;20021;-61
2022/12/19 09:51:12;;;;;;;43.58;13.88;;;;;;;;;;5009530;28;20088;-62
2022/12/19 09:53:43;;;;;;;37.80;13.43;;;;;;;;;;5010859;28;20026;-61
2022/12/19 09:56:11;;;;;;;38.35;13.52;;;;;;;;;;5011214;28;20018;-62
2022/12/19 09:58:39;;;;;;;32.90;12.10;;;;;;;;;;5011041;28;20619;-61
2022/12/19 10:01:07;;;;;;;33.80;12.38;;;;;;;;;;5009392;28;20033;-61
2022/12/19 10:03:32;;;;;;;;;;;;;;;;;;5011412;28;20029;-61
2022/12/19 10:06:04;;;;;;;35.35;12.27;;;;;;;;;;5011012;28;20206;-61
2022/12/19 10:08:30;;;;;;;39.13;12.90;;;;;;;;;;5010764;28;20033;-61
2022/12/19 10:11:05;;;;;;;34.28;12.75;;;;;;;;;;5008528;28;20108;-60
2022/12/19 10:13:45;;;;;;;37.88;13.88;;;;;;;;;;5010379;28;20014;-61
2022/12/19 10:16:29;;;;;;;38.15;13.82;;;;;;;;;;5009912;28;20080;-61
2022/12/19 10:18:56;;;;;;;34.67;12.68;;;;;;;;;;5010518;28;20508;-60
2022/12/19 10:21:36;;;;;;;36.90;12.60;;;;;;;;;;5010316;28;20524;-61
2022/12/19 10:24:08;;;;;;;37.85;13.40;;;;;;;;;;5010622;28;20026;-62
2022/12/19 10:26:56;;;;;;;33.60;11.52;;;;;;;;;;5008728;28;20450;-60
2022/12/19 10:29:22;;;;;;;35.75;13.00;;;;;;;;;;5010612;28;20025;-60
2022/12/19 10:31:53;;;;;;;35.23;13.13;;;;;;;;;;5010205;28;20026;-60
2022/12/19 10:34:20;;;;;;;36.53;13.07;;;;;;;;;;5010510;28;20462;-59
2022/12/19 10:36:49;;;;;;;35.00;12.68;;;;;;;;;;5009477;28;20026;-60
2022/12/19 10:39:53;;;;;;;31.63;11.13;;;;;;;;;;5010328;28;20026;-60
2022/12/19 10:42:23;;;;;;;35.05;12.38;;;;;;;;;;4911407;29;20035;-59
2022/12/19 10:44:50;;;;;;;33.55;12.23;;;;;;;;;;4911672;29;20554;-59
2022/12/19 10:47:16;;;;;;;36.33;12.13;;;;;;;;;;4960406;28;20057;-58
2022/12/19 10:49:41;;;;;;;32.47;12.63;;;;;;;;;;5010266;28;20503;-61
2022/12/19 10:52:07;;;;;;;31.70;11.23;;;;;;;;;;5009521;28;20461;-60
2022/12/19 10:54:36;;;;;;;34.63;11.02;;;;;;;;;;5009877;28;20096;-60
2022/12/19 10:57:17;;;;;;;33.13;11.98;;;;;;;;;;5009662;28;20033;-59
2022/12/19 10:59:52;;;;;;;38.47;12.18;;;;;;;;;;5010362;28;20477;-59
2022/12/19 11:02:26;;;;;;;34.38;12.73;;;;;;;;;;4990574;28;20028;-59
2022/12/19 11:04:51;;;;;;;32.10;11.88;;;;;;;;;;4990708;28;20034;-59
2022/12/19 11:07:17;;;;;;;33.47;12.07;;;;;;;;;;5001192;28;20037;-58
2022/12/19 11:09:43;;;;;;;35.55;11.57;;;;;;;;;;5009942;28;20030;-59
2022/12/19 11:12:10;;;;;;;33.43;12.87;;;;;;;;;;5009928;28;20105;-59
2022/12/19 11:14:36;;;;;;;33.80;12.32;;;;;;;;;;5009932;28;20062;-59
2022/12/19 11:17:01;;;;;;;35.58;13.07;;;;;;;;;;5008376;28;20045;-59
2022/12/19 11:19:34;;;;;;;36.00;12.77;;;;;;;;;;5009711;28;20049;-58
2022/12/19 11:22:01;;;;;;;33.42;11.85;;;;;;;;;;5009504;28;20024;-58
2022/12/19 11:24:30;;;;;;;35.30;13.45;;;;;;;;;;5008128;28;20041;-59
2022/12/19 11:26:55;;;;;;;36.13;12.48;;;;;;;;;;5010061;28;20026;-59
2022/12/19 11:29:23;;;;;;;30.60;11.97;;;;;;;;;;5010076;28;20045;-59
2022/12/19 11:31:53;;;;;;;35.75;12.65;;;;;;;;;;5009789;28;20057;-58
2022/12/19 11:34:22;;;;;;;33.17;12.18;;;;;;;;;;5007965;28;20022;-59
2022/12/19 11:36:50;;;;;;;33.85;11.70;;;;;;;;;;5010135;28;20388;-59
2022/12/19 11:39:30;;;;;;;31.38;11.77;;;;;;;;;;5012160;28;20022;-59
2022/12/19 11:42:12;;;;;;;39.47;12.32;;;;;;;;;;5012883;28;20018;-59
2022/12/19 11:44:46;;;;;;;36.65;13.27;;;;;;;;;;5011761;28;20030;-58
2022/12/19 11:47:31;;;;;;;33.42;12.18;;;;;;;;;;5013513;28;20022;-59
2022/12/19 11:50:08;;;;;;;33.83;12.13;;;;;;;;;;5013492;28;20038;-59
2022/12/19 11:52:36;;;;;;;33.67;12.23;;;;;;;;;;5012977;28;20093;-59
2022/12/19 11:55:06;;;;;;;37.05;12.73;;;;;;;;;;5011577;28;20076;-59
2022/12/19 11:57:32;;;;;;;35.97;12.40;;;;;;;;;;5013116;28;20120;-59
2022/12/19 11:59:57;;;;;;;35.00;12.53;;;;;;;;;;5011920;28;20104;-59
2022/12/19 12:02:22;;;;;;;37.73;12.90;;;;;;;;;;5013023;28;20025;-60
2022/12/19 12:05:06;;;;;;;37.37;13.43;;;;;;;;;;5013061;28;20018;-60
2022/12/19 12:07:34;;;;;;;41.92;13.13;;;;;;;;;;5012830;28;20045;-59
2022/12/19 12:10:04;;;;;;;39.08;13.75;;;;;;;;;;5008751;28;20018;-60
2022/12/19 12:12:37;;;;;;;37.97;12.88;;;;;;;;;;4992617;28;20033;-59
2022/12/19 12:15:02;;;;;;;38.05;13.18;;;;;;;;;;4996792;28;20057;-59
2022/12/19 12:17:46;;;;;;;35.53;12.05;;;;;;;;;;5008425;28;20213;-59
2022/12/19 12:20:40;;;;;;;36.17;13.13;;;;;;;;;;5014212;28;20109;-59
2022/12/19 12:23:24;;;;;;;36.70;12.13;;;;;;;;;;4976035;28;20413;-59
2022/12/19 12:25:49;;;;;;;38.13;12.82;;;;;;;;;;4992989;28;20034;-58
2022/12/19 12:28:33;;;;;;;34.05;12.07;;;;;;;;;;4992998;28;20022;-59
2022/12/19 12:31:01;;;;;;;32.67;11.65;;;;;;;;;;5010176;28;20131;-59
2022/12/19 12:33:44;;;;;;;35.05;11.85;;;;;;;;;;5010224;28;20033;-58
2022/12/19 12:36:15;;;;;;;33.10;12.45;;;;;;;;;;5012265;28;20021;-59
2022/12/19 12:38:49;;;;;;;36.20;13.10;;;;;;;;;;5012281;28;20156;-58
2022/12/19 12:41:20;;;;;;;36.63;12.85;;;;;;;;;;5008304;28;20092;-58
2022/12/19 12:43:50;;;;;;;33.08;11.98;;;;;;;;;;5010785;28;20407;-58
2022/12/19 12:46:20;;;;;;;36.78;12.32;;;;;;;;;;5024498;28;20033;-58
2022/12/19 12:48:49;;;;;;;33.85;12.50;;;;;;;;;;5012313;28;20100;-58
2022/12/19 12:51:14;;;;;;;33.55;12.63;;;;;;;;;;5019139;28;20095;-58
2022/12/19 12:53:41;;;;;;;34.67;12.00;;;;;;;;;;5013819;28;20077;-59
2022/12/19 12:56:08;;;;;;;32.92;12.68;;;;;;;;;;5010378;28;20026;-58
2022/12/19 12:58:33;;;;;;;;;;;;;;;;;;5010312;28;20018;-58
2022/12/19 13:01:17;;;;;;;28.95;11.63;;;;;;;;;;5013018;28;19932;-59
2022/12/19 13:03:49;;;;;;;39.47;13.15;;;;;;;;;;5011652;28;20030;-60
2022/12/19 13:06:25;;;;;;;39.15;14.15;;;;;;;;;;5014828;28;20164;-59
2022/12/19 13:08:52;;;;;;;38.40;13.52;;;;;;;;;;5011065;28;20441;-59
2022/12/19 13:14:02;;;;;;;35.53;13.38;;;;;;;;;;5011274;28;20065;-59
2022/12/19 13:16:42;;;;;;;34.40;13.50;;;;;;;;;;5011748;28;20026;-59
2022/12/19 13:19:15;;;;;;;38.20;13.43;;;;;;;;;;5009892;28;20484;-59
2022/12/19 13:21:40;;;;;;;;;;;;;;;;;;5019698;28;20092;-59
2022/12/19 13:24:12;;;;;;;39.53;13.98;;;;;;;;;;5011567;28;19909;-59
2022/12/19 13:26:55;;;;;;;40.95;14.32;;;;;;;;;;5013684;28;20063;-58
2022/12/19 13:29:28;;;;;;;36.97;13.45;;;;;;;;;;5010267;28;20014;-59
2022/12/19 13:32:06;;;;;;;45.42;16.15;;;;;;;;;;5003836;28;20037;-59
2022/12/19 13:34:31;;;;;;;;;;;;;;;;;;5002201;28;20132;-59
2022/12/19 13:37:17;;;;;;;44.42;14.10;;;;;;;;;;5003217;28;20004;-59
2022/12/19 13:39:59;;;;;;;42.22;14.80;;;;;;;;;;5006449;28;20029;-59
2022/12/19 13:45:18;;;;;;;40.00;14.55;;;;;;;;;;5011479;28;20041;-59
2022/12/19 13:47:43;;;;;;;39.50;14.10;;;;;;;;;;5012688;28;20036;-59
2022/12/19 13:50:29;;;;;;;43.33;15.65;;;;;;;;;;5012044;28;20113;-59
2022/12/19 13:52:54;;;;;;;41.17;15.32;;;;;;;;;;5007844;28;20022;-59
2022/12/19 13:55:19;;;;;;;39.83;14.63;;;;;;;;;;5009724;28;20101;-60
2022/12/19 13:57:51;;;;;;;48.30;16.67;;;;;;;;;;5007126;28;20473;-60
2022/12/19 14:00:18;;;;;;;39.67;14.80;;;;;;;;;;5010481;28;20878;-58
2022/12/19 14:02:49;;;;;;;45.35;16.25;;;;;;;;;;5008947;28;20049;-59
2022/12/19 14:05:25;;;;;;;39.33;14.07;;;;;;;;;;5007517;28;20419;-59
2022/12/19 14:07:51;;;;;;;45.30;16.85;;;;;;;;;;5008079;28;20026;-60
2022/12/19 14:10:17;;;;;;;44.50;15.88;;;;;;;;;;5010008;28;20034;-59
2022/12/19 14:15:29;;;;;;;45.42;15.82;;;;;;;;;;4949622;26;20108;-60
2022/12/19 14:17:54;;;;;;;44.30;15.73;;;;;;;;;;5010305;28;20492;-60
2022/12/19 14:20:20;;;;;;;41.93;14.70;;;;;;;;;;5010873;28;20022;-60
2022/12/19 14:22:45;;;;;;;45.65;15.73;;;;;;;;;;5009489;28;20559;-60
2022/12/19 14:25:11;;;;;;;51.43;17.40;;;;;;;;;;5008560;28;20114;-60
2022/12/19 14:27:41;;;;;;;48.23;16.13;;;;;;;;;;5010119;28;20551;-60
2022/12/19 14:30:14;;;;;;;48.17;16.85;;;;;;;;;;5010890;28;20022;-60
2022/12/19 14:32:39;;;;;;;42.78;16.15;;;;;;;;;;5008120;28;20030;-61
2022/12/19 14:35:07;;;;;;;48.53;16.70;;;;;;;;;;5009003;28;20037;-60
2022/12/19 14:37:36;;;;;;;50.45;16.17;;;;;;;;;;5009613;28;20028;-58
2022/12/19 14:40:15;;;;;;;48.88;16.98;;;;;;;;;;5003258;28;20080;-59